Flight ASXC01

  • Submitted By: Rafal Piotrowski
  • Departure Airport: Gdansk im. Lecha Walesy (EPGD)
  • Arrival Airport: Krakow im. Jana Pawla II (EPKK)
  • Aircraft: B737-800 (SP-GLO)
  • Flight Time: 1.06
  • Date Submitted: 12/02/2015
  • Route: IRLUN N133 NEGUV M66 KUKAM
  • Status: Accepted
Flight Details
Gross Revenue:
(155 load / € 125.00 per unit
€ 19,375.00
Fuel Cost:
(5901 fuel used @ 0.45 / unit)
€ 2,655.45

Additional Log Information:

View Log

[2015/12/02 21:26:00]
Flight IATA:ASXC01
Pilot Number:ASX0102
Company ICAO:ASX
Aircraft Type:B737-800
PAX:155
Aircraft Registration:SP-GLO
Departing Airport: EPGD
Destination Airport: EPKK
Alternate Airport:EPRZ
Online: VATSIM
Route:IRLUN N133 NEGUV M66 KUKAM
Flight Level:31000
21:26 Zero fuel Weight: 127244 Lbs, Fuel Weight: 14329 Lbs
21:26 VATSIM:EPGD 022100Z 25008KT 9999 FEW030 BKN047 07/06 Q1022 R11/290095
21:26 VATSIM:EPKK 022100Z 28008KT 8000 OVC008 09/07 Q1027
21:47 Parking Brakes off
21:47 Com1 Freq=122.80
21:58 VR= 153 Knots
21:59 V2= 162 Knots
21:59 Take-off
21:59 Take off Weight: 140985 Lbs
21:59 Wind: 260? @ 007 Knots Heading: 291?
21:59 POS N54? 22? 36?? E018? 28? 08??
21:59 N11 93 N12 93
21:59 Flaps:3 at 163 Knots
21:59 Gear Up: 159 Knots
22:00 Flaps:2 at 180 Knots
22:00 Flaps:1 at 183 Knots
22:01 Flaps:0 at 212 Knots
22:14 Wind:308?@054 KnotsHeading: 166? Ground Speed: 497 Knots Altitude 29353 ft
22:15 TOC
22:15 Fuel Weight: 10430 Lb
22:23 TOD
22:23 Fuel Weight: 9638 Lb
22:29 Wind:325?@058 Knots Heading: 164? Ground Speed: 431 Knots Altitude 21394 ft
22:42 Flaps:1 at 205 Knots
22:43 Flaps:2 at 196 Knots
22:43 Flaps:1 at 198 Knots
22:43 Flaps:2 at 196 Knots
22:43 Flaps:3 at 192 Knots
22:43 Flaps:2 at 191 Knots
22:43 Flaps:3 at 189 Knots
22:43 Gear Down: 187 Knots
22:44 Wind:295?@022 Knots Heading: 262? Ground Speed: 159 Knots Altitude 2286 ft
22:44 Flaps:4 at 169 Knots
22:44 Flaps:3 at 167 Knots
22:44 Flaps:4 at 166 Knots
22:44 Flaps:5 at 167 Knots
22:44 Flaps:4 at 163 Knots
22:44 Flaps:5 at 164 Knots
22:44 Flaps:8 at 155 Knots
22:44 Flaps:6 at 153 Knots
22:44 Flaps:7 at 153 Knots
22:44 Flaps:8 at 149 Knots
22:46 TouchDown:Rate -81 ft/min Speed: 127 Knots
22:46 VATSIM:EPKK 022230Z 27007KT4000 -DZ BR FEW004 OVC008 08/07 Q1028
22:46 Land
22:46 Wind:260?@008 Knots
22:46 Heading: 259?
22:46 Flight Duration: 00:47
22:46 Landing Weight: 135965 Lbs
22:46 POS N50? 04? 39?? E019? 47? 02??
22:53 Parking brakes on
22:53 Block to Block Duration: 01:06
22:53 Final Fuel: 8428 Lbls
22:53 Spent Fuel: 5901 Lbls
22:53 Flight Length: 298 NM
22:53 TOD Land Length: 129 NM

Route Map